Time;durP1;ratioP1;P1;durP2;ratioP2;P2;SDS_P1;SDS_P2;PMS_P1;PMS_P2;Temp;Humidity;BMP_temperature;BMP_pressure;BME280_temperature;BME280_humidity;BME280_pressure;Samples;Min_cycle;Max_cycle;Signal;HPM_P1;HPM_P2
2022/11/13 00:01:20;;;;;;;15.32;10.32;;;7.60;99.90;;;;;;4943339;28;20126;-59
2022/11/13 00:03:47;;;;;;;14.05;10.15;;;7.60;99.90;;;;;;4947450;28;20040;-61
2022/11/13 00:06:13;;;;;;;14.38;10.23;;;7.60;99.90;;;;;;4948782;28;20103;-61
2022/11/13 00:08:39;;;;;;;13.90;9.75;;;7.60;99.90;;;;;;4947310;28;20035;-60
2022/11/13 00:11:14;;;;;;;12.50;9.77;;;7.50;99.90;;;;;;4944102;28;20035;-60
2022/11/13 00:13:41;;;;;;;12.75;9.60;;;7.50;99.90;;;;;;4945142;28;20051;-61
2022/11/13 00:16:11;;;;;;;14.75;9.23;;;7.50;99.90;;;;;;4953954;28;20535;-61
2022/11/13 00:18:37;;;;;;;11.48;8.73;;;7.50;99.90;;;;;;4946811;28;20066;-60
2022/11/13 00:21:15;;;;;;;11.57;8.48;;;7.50;99.90;;;;;;4946538;28;20475;-60
2022/11/13 00:23:41;;;;;;;9.75;8.40;;;7.40;99.90;;;;;;4947334;28;20043;-60
2022/11/13 00:26:09;;;;;;;11.80;7.82;;;7.40;99.90;;;;;;4945611;28;20062;-60
2022/11/13 00:28:35;;;;;;;12.20;8.65;;;7.30;99.90;;;;;;4948767;28;20042;-60
2022/11/13 00:31:02;;;;;;;11.25;7.93;;;7.30;99.90;;;;;;4944196;28;20039;-61
2022/11/13 00:33:29;;;;;;;10.40;7.93;;;7.30;99.90;;;;;;4945435;28;20050;-60
2022/11/13 00:36:04;;;;;;;9.40;7.95;;;7.20;99.90;;;;;;4946189;28;20114;-61
2022/11/13 00:38:30;;;;;;;12.57;8.45;;;7.20;99.90;;;;;;4948774;28;20506;-61
2022/11/13 00:40:56;;;;;;;10.15;7.93;;;7.20;99.90;;;;;;4947160;28;20121;-61
2022/11/13 00:43:21;;;;;;;12.52;7.72;;;7.20;99.90;;;;;;4948315;28;20209;-61
2022/11/13 00:45:47;;;;;;;10.38;7.70;;;7.00;99.90;;;;;;4944384;28;20145;-61
2022/11/13 00:48:12;;;;;;;12.05;8.32;;;6.50;99.90;;;;;;4942875;28;20035;-60
2022/11/13 00:50:38;;;;;;;9.68;7.68;;;6.30;99.90;;;;;;4945336;28;20031;-60
2022/11/13 00:53:03;;;;;;;11.10;7.68;;;6.90;99.90;;;;;;4943068;28;20039;-61
2022/11/13 00:55:29;;;;;;;13.40;8.23;;;7.00;99.90;;;;;;4948637;28;20035;-60
2022/11/13 00:57:54;;;;;;;13.07;8.27;;;7.20;99.90;;;;;;4944718;28;20085;-61
2022/11/13 01:00:20;;;;;;;13.27;8.38;;;6.80;99.90;;;;;;4943235;28;20050;-60
2022/11/13 01:02:46;;;;;;;11.73;8.00;;;6.80;99.90;;;;;;4947352;28;20041;-60
2022/11/13 01:05:11;;;;;;;11.82;8.25;;;6.90;99.90;;;;;;4943627;28;20051;-61
2022/11/13 01:07:37;;;;;;;12.70;7.88;;;6.90;99.90;;;;;;4944646;28;20046;-61
2022/11/13 01:10:04;;;;;;;12.68;8.05;;;7.00;99.90;;;;;;4933585;28;20035;-61
2022/11/13 01:12:31;;;;;;;12.05;8.52;;;7.00;99.90;;;;;;4945073;28;20090;-60
2022/11/13 01:14:56;;;;;;;13.95;8.93;;;7.10;99.90;;;;;;4952240;28;20638;-60
2022/11/13 01:17:22;;;;;;;11.60;8.38;;;6.90;99.90;;;;;;4943848;28;20114;-60
2022/11/13 01:19:48;;;;;;;11.93;8.95;;;6.80;99.90;;;;;;4932512;28;20466;-60
2022/11/13 01:22:14;;;;;;;11.38;8.45;;;6.70;99.90;;;;;;4946776;28;20085;-59
2022/11/13 01:24:39;;;;;;;12.80;8.50;;;6.60;99.90;;;;;;4944852;28;20040;-61
2022/11/13 01:27:05;;;;;;;11.77;8.38;;;6.80;99.90;;;;;;4941022;28;20107;-61
2022/11/13 01:29:30;;;;;;;11.70;8.25;;;6.70;99.90;;;;;;4948080;28;20078;-60
2022/11/13 01:31:56;;;;;;;12.40;8.85;;;6.90;99.90;;;;;;4942063;28;20043;-60
2022/11/13 01:34:22;;;;;;;11.98;8.55;;;7.00;99.90;;;;;;4944359;28;20031;-59
2022/11/13 01:36:47;;;;;;;13.10;8.82;;;6.90;99.90;;;;;;4936967;28;20035;-61
2022/11/13 01:39:13;;;;;;;11.38;8.38;;;6.90;99.90;;;;;;4947720;28;20035;-60
2022/11/13 01:41:39;;;;;;;12.43;9.20;;;6.80;99.90;;;;;;4947950;28;20032;-60
2022/11/13 01:44:09;;;;;;;12.70;8.75;;;6.90;99.90;;;;;;4943469;28;20487;-60
2022/11/13 01:46:43;;;;;;;13.82;8.82;;;6.70;99.90;;;;;;4940284;28;20126;-59
2022/11/13 01:49:08;;;;;;;10.80;8.35;;;6.80;99.90;;;;;;4943616;28;20058;-60
2022/11/13 01:51:37;;;;;;;12.25;9.40;;;7.00;99.90;;;;;;4945558;28;20534;-60
2022/11/13 01:54:14;;;;;;;11.63;9.02;;;7.00;99.90;;;;;;4941134;28;20039;-61
2022/11/13 01:56:40;;;;;;;12.80;8.95;;;7.00;99.90;;;;;;4947340;28;20127;-61
2022/11/13 01:59:13;;;;;;;11.45;9.05;;;7.10;99.90;;;;;;4945990;28;20158;-61
2022/11/13 02:01:39;;;;;;;;;;;7.10;99.90;;;;;;4942963;28;20089;-60
2022/11/13 02:04:05;;;;;;;14.35;9.60;;;7.20;99.90;;;;;;4942680;28;19918;-60
2022/11/13 02:06:38;;;;;;;12.32;8.75;;;7.30;99.90;;;;;;4948759;28;20081;-61
2022/11/13 02:09:05;;;;;;;13.45;9.52;;;7.30;99.90;;;;;;4944138;28;20114;-60
2022/11/13 02:11:30;;;;;;;13.50;9.10;;;7.30;99.90;;;;;;4946159;28;20031;-60
2022/11/13 02:13:57;;;;;;;14.07;9.80;;;7.30;99.90;;;;;;4944945;28;20073;-60
2022/11/13 02:16:23;;;;;;;11.98;8.93;;;7.30;99.90;;;;;;4946364;28;20081;-61
2022/11/13 02:18:50;;;;;;;11.80;8.80;;;7.30;99.90;;;;;;4948400;28;20027;-60
2022/11/13 02:21:28;;;;;;;12.93;9.45;;;7.20;99.90;;;;;;4943552;28;20097;-60
2022/11/13 02:24:17;;;;;;;13.55;9.57;;;7.30;99.90;;;;;;4946732;28;20059;-59
2022/11/13 02:26:43;;;;;;;13.85;9.20;;;7.20;99.90;;;;;;4932481;28;20082;-60
2022/11/13 02:29:09;;;;;;;12.40;8.57;;;7.40;99.90;;;;;;4939456;28;20073;-60
2022/11/13 02:31:35;;;;;;;12.88;9.40;;;7.30;99.90;;;;;;4942474;28;20051;-60
2022/11/13 02:34:01;;;;;;;12.68;9.02;;;7.20;99.90;;;;;;4942231;28;20684;-60
2022/11/13 02:36:28;;;;;;;13.30;9.00;;;7.10;99.90;;;;;;4941368;28;20146;-59
2022/11/13 02:38:57;;;;;;;12.15;9.27;;;7.20;99.90;;;;;;4946831;28;20071;-60
2022/11/13 02:41:23;;;;;;;12.98;9.27;;;7.10;99.90;;;;;;4945316;28;20070;-60
2022/11/13 02:43:49;;;;;;;13.45;9.70;;;7.10;99.90;;;;;;4943102;28;20086;-60
2022/11/13 02:46:14;;;;;;;14.18;9.50;;;7.00;99.90;;;;;;4941348;28;20122;-61
2022/11/13 02:48:40;;;;;;;11.13;8.80;;;6.90;99.90;;;;;;4942226;28;20107;-59
2022/11/13 02:51:05;;;;;;;12.65;8.80;;;6.90;99.90;;;;;;4940059;28;20030;-60
2022/11/13 02:53:31;;;;;;;13.05;9.25;;;6.90;99.90;;;;;;4941886;28;20118;-59
2022/11/13 02:55:57;;;;;;;12.57;9.00;;;6.90;99.90;;;;;;4942768;28;20039;-61
2022/11/13 02:58:22;;;;;;;13.52;8.88;;;6.90;99.90;;;;;;4941111;28;20126;-60
2022/11/13 03:00:48;;;;;;;12.15;9.18;;;6.90;99.90;;;;;;4947338;28;20394;-60
2022/11/13 03:03:13;;;;;;;16.30;9.52;;;6.90;99.90;;;;;;4942174;28;20557;-61
2022/11/13 03:05:39;;;;;;;14.85;9.90;;;7.00;99.90;;;;;;4945200;28;20831;-60
2022/11/13 03:08:05;;;;;;;13.68;9.38;;;7.10;99.90;;;;;;4942866;28;20524;-59
2022/11/13 03:10:31;;;;;;;12.85;9.43;;;7.30;99.90;;;;;;4925029;29;20652;-60
2022/11/13 03:12:57;;;;;;;15.00;9.57;;;7.20;99.90;;;;;;4948011;28;20059;-60
2022/11/13 03:15:23;;;;;;;13.32;8.93;;;7.60;99.90;;;;;;4941192;28;20023;-61
2022/11/13 03:17:49;;;;;;;13.13;8.77;;;7.70;99.90;;;;;;4942300;28;20063;-60
2022/11/13 03:20:14;;;;;;;13.05;9.13;;;7.90;99.90;;;;;;4951600;28;20750;-60
2022/11/13 03:22:40;;;;;;;10.80;8.07;;;7.80;99.90;;;;;;4945468;28;20059;-60
2022/11/13 03:25:06;;;;;;;12.63;8.93;;;7.90;99.90;;;;;;4944210;28;20122;-59
2022/11/13 03:27:32;;;;;;;11.27;8.20;;;7.90;99.90;;;;;;4945994;28;20073;-59
2022/11/13 03:29:57;;;;;;;12.25;8.45;;;8.00;99.90;;;;;;4942121;28;20515;-60
2022/11/13 03:32:23;;;;;;;11.18;8.27;;;8.10;99.90;;;;;;4943825;28;20062;-60
2022/11/13 03:34:49;;;;;;;13.40;8.95;;;8.00;99.90;;;;;;4954587;28;20038;-61
2022/11/13 03:37:15;;;;;;;11.68;8.52;;;8.00;99.90;;;;;;4961309;28;20148;-60
2022/11/13 03:39:40;;;;;;;11.27;7.72;;;8.10;99.90;;;;;;4962808;28;20031;-60
2022/11/13 03:42:06;;;;;;;11.73;8.55;;;8.20;99.90;;;;;;4977479;28;20034;-61
2022/11/13 03:44:32;;;;;;;13.80;8.93;;;8.20;99.90;;;;;;4966069;28;20058;-60
2022/11/13 03:46:57;;;;;;;12.52;7.75;;;8.10;99.90;;;;;;4946369;28;20130;-59
2022/11/13 03:49:23;;;;;;;12.98;8.60;;;8.00;99.90;;;;;;4951660;28;20652;-59
2022/11/13 03:51:48;;;;;;;12.77;8.73;;;8.00;99.90;;;;;;4950992;28;20062;-60
2022/11/13 03:54:14;;;;;;;12.57;9.30;;;8.00;99.90;;;;;;4938779;28;20036;-61
2022/11/13 03:56:39;;;;;;;14.07;8.88;;;8.00;99.90;;;;;;4953320;28;20077;-60
2022/11/13 03:59:05;;;;;;;11.80;8.90;;;7.90;99.90;;;;;;4930807;28;20679;-61
2022/11/13 04:01:30;;;;;;;12.80;8.88;;;7.90;99.90;;;;;;4947892;28;20111;-60
2022/11/13 04:03:56;;;;;;;10.77;8.15;;;7.80;99.90;;;;;;4947315;28;20130;-60
2022/11/13 04:06:21;;;;;;;11.05;8.57;;;7.80;99.90;;;;;;4955064;28;20039;-60
2022/11/13 04:08:47;;;;;;;11.85;8.35;;;7.70;99.90;;;;;;4929239;29;20055;-62
2022/11/13 04:11:13;;;;;;;11.82;8.57;;;7.60;99.90;;;;;;4947591;28;20020;-61
2022/11/13 04:13:38;;;;;;;14.63;8.50;;;7.70;99.90;;;;;;4941539;28;20091;-60
2022/11/13 04:16:04;;;;;;;13.68;8.48;;;7.70;99.90;;;;;;4936239;28;20058;-60
2022/11/13 04:18:30;;;;;;;9.68;7.63;;;7.50;99.90;;;;;;4939340;28;20390;-60
2022/11/13 04:21:03;;;;;;;11.45;8.15;;;7.60;99.90;;;;;;4944201;28;20043;-60
2022/11/13 04:23:29;;;;;;;11.52;8.10;;;7.70;99.90;;;;;;4928701;29;20660;-61
2022/11/13 04:25:55;;;;;;;12.13;7.97;;;7.80;99.90;;;;;;4951349;28;20024;-59
2022/11/13 04:28:21;;;;;;;12.38;8.05;;;7.70;99.90;;;;;;4936763;28;20883;-60
2022/11/13 04:30:47;;;;;;;10.02;7.93;;;7.70;99.90;;;;;;4937334;28;20043;-61
2022/11/13 04:33:12;;;;;;;10.48;7.78;;;7.80;99.90;;;;;;4939239;28;20149;-60
2022/11/13 04:35:41;;;;;;;11.40;7.90;;;7.70;99.90;;;;;;4936706;28;20086;-61
2022/11/13 04:38:06;;;;;;;10.07;8.15;;;7.50;99.90;;;;;;4934053;28;20023;-61
2022/11/13 04:40:32;;;;;;;11.23;8.45;;;7.40;99.90;;;;;;4944751;28;20034;-61
2022/11/13 04:42:57;;;;;;;11.90;8.07;;;7.40;99.90;;;;;;4942555;28;20024;-60
2022/11/13 04:45:26;;;;;;;10.05;7.53;;;7.50;99.90;;;;;;4938611;28;20142;-61
2022/11/13 04:47:52;;;;;;;10.68;7.63;;;7.50;99.90;;;;;;4943700;28;20047;-60
2022/11/13 04:50:18;;;;;;;10.13;7.80;;;7.50;99.90;;;;;;4943030;28;20176;-60
2022/11/13 04:52:44;;;;;;;10.70;7.63;;;7.40;99.90;;;;;;4949345;28;20492;-61
2022/11/13 04:55:10;;;;;;;9.93;7.65;;;7.40;99.90;;;;;;4942317;28;20155;-61
2022/11/13 04:57:36;;;;;;;11.48;7.80;;;7.30;99.90;;;;;;4945600;28;20050;-60
2022/11/13 05:00:02;;;;;;;11.90;8.25;;;7.30;99.90;;;;;;4945126;28;20039;-61
2022/11/13 05:02:28;;;;;;;11.95;8.57;;;7.30;99.90;;;;;;4933116;28;20114;-60
2022/11/13 05:04:53;;;;;;;10.65;8.05;;;7.20;99.90;;;;;;4946997;28;20122;-61
2022/11/13 05:07:19;;;;;;;12.73;8.55;;;7.20;99.90;;;;;;4941334;28;20039;-60
2022/11/13 05:09:44;;;;;;;11.57;7.97;;;7.10;99.90;;;;;;4950235;28;20031;-60
2022/11/13 05:12:10;;;;;;;11.52;8.45;;;7.10;99.90;;;;;;4939807;28;20461;-61
2022/11/13 05:14:39;;;;;;;10.93;8.30;;;7.10;99.90;;;;;;4944620;28;20038;-60
2022/11/13 05:17:06;;;;;;;9.88;7.88;;;7.00;99.90;;;;;;4923229;28;20871;-61
2022/11/13 05:19:32;;;;;;;12.10;8.52;;;7.00;99.90;;;;;;4943285;28;20218;-60
2022/11/13 05:21:58;;;;;;;11.02;8.15;;;7.00;99.90;;;;;;4944319;28;20436;-60
2022/11/13 05:24:24;;;;;;;11.23;8.50;;;6.90;99.90;;;;;;4944028;28;20051;-60
2022/11/13 05:26:50;;;;;;;11.70;8.43;;;6.80;99.90;;;;;;4941382;28;20644;-60
2022/11/13 05:29:16;;;;;;;12.75;8.85;;;6.80;99.90;;;;;;4939419;28;20059;-61
2022/11/13 05:31:42;;;;;;;11.02;7.90;;;6.60;99.90;;;;;;4940177;28;20074;-59
2022/11/13 05:34:07;;;;;;;11.90;8.07;;;6.60;99.90;;;;;;4935704;28;20556;-60
2022/11/13 05:36:33;;;;;;;10.82;7.85;;;6.60;99.90;;;;;;4942842;28;20056;-61
2022/11/13 05:38:59;;;;;;;11.85;8.32;;;6.60;99.90;;;;;;4938141;28;20024;-60
2022/11/13 05:41:25;;;;;;;11.80;8.32;;;6.60;99.90;;;;;;4939624;28;20027;-61
2022/11/13 05:43:50;;;;;;;11.77;8.27;;;6.50;99.90;;;;;;4947191;28;20419;-60
2022/11/13 05:46:21;;;;;;;12.07;8.20;;;6.40;99.90;;;;;;4948838;28;20039;-60
2022/11/13 05:48:52;;;;;;;12.52;8.27;;;6.40;99.90;;;;;;4939183;28;20039;-61
2022/11/13 05:51:25;;;;;;;12.23;8.27;;;6.40;99.90;;;;;;4939884;28;20046;-60
2022/11/13 05:53:52;;;;;;;10.55;7.68;;;6.30;99.90;;;;;;4944374;28;20032;-59
2022/11/13 05:56:24;;;;;;;10.35;8.18;;;6.30;99.90;;;;;;4938004;28;20695;-60
2022/11/13 05:58:51;;;;;;;10.75;7.93;;;6.20;99.90;;;;;;4942670;28;20497;-60
2022/11/13 06:01:35;;;;;;;11.02;7.50;;;6.20;99.90;;;;;;4943595;28;20141;-60
2022/11/13 06:04:01;;;;;;;10.82;8.00;;;6.20;99.90;;;;;;4951719;28;20317;-61
2022/11/13 06:06:28;;;;;;;11.25;7.70;;;6.20;99.90;;;;;;4947047;28;20560;-61
2022/11/13 06:08:55;;;;;;;11.55;8.35;;;6.20;99.90;;;;;;4944778;28;20490;-60
2022/11/13 06:11:23;;;;;;;10.52;7.90;;;6.10;99.90;;;;;;4935064;28;20729;-61
2022/11/13 06:13:50;;;;;;;13.57;8.23;;;6.10;99.90;;;;;;4941169;28;20519;-61
2022/11/13 06:16:19;;;;;;;9.93;7.70;;;6.10;99.90;;;;;;4946691;28;20043;-59
2022/11/13 06:18:46;;;;;;;11.80;7.97;;;6.10;99.90;;;;;;4951714;28;20035;-61
2022/11/13 06:21:18;;;;;;;10.63;7.90;;;5.90;99.90;;;;;;4952009;28;20039;-61
2022/11/13 06:23:44;;;;;;;10.63;7.50;;;5.70;99.90;;;;;;4961513;28;20039;-60
2022/11/13 06:26:15;;;;;;;10.93;7.47;;;5.60;99.90;;;;;;4964642;28;20336;-60
2022/11/13 06:28:41;;;;;;;10.57;7.57;;;5.70;99.90;;;;;;4961369;28;20335;-60
2022/11/13 06:31:09;;;;;;;11.63;7.68;;;5.60;99.90;;;;;;4964662;28;20209;-61
2022/11/13 06:33:35;;;;;;;10.43;7.63;;;5.60;99.90;;;;;;4949522;28;20039;-61
2022/11/13 06:36:02;;;;;;;12.43;8.25;;;5.70;99.90;;;;;;4962084;28;20061;-60
2022/11/13 06:38:32;;;;;;;11.70;7.43;;;5.70;99.90;;;;;;4975396;28;20526;-60
2022/11/13 06:40:58;;;;;;;10.20;7.63;;;5.80;99.90;;;;;;4967419;28;20137;-60
2022/11/13 06:43:24;;;;;;;10.77;7.53;;;5.70;99.90;;;;;;4962140;28;20435;-61
2022/11/13 06:45:50;;;;;;;10.43;7.82;;;5.70;99.90;;;;;;4960841;28;20030;-60
2022/11/13 06:48:15;;;;;;;15.35;7.88;;;5.70;99.90;;;;;;4964875;28;20043;-61
2022/11/13 06:50:41;;;;;;;9.50;7.38;;;5.60;99.90;;;;;;4960520;28;20093;-61
2022/11/13 06:53:06;;;;;;;11.77;7.43;;;5.60;99.90;;;;;;4964756;28;20032;-61
2022/11/13 06:55:32;;;;;;;10.70;8.13;;;5.60;99.90;;;;;;4968926;28;20035;-60
2022/11/13 06:57:57;;;;;;;11.52;7.15;;;5.60;99.90;;;;;;4966309;28;20042;-61
2022/11/13 07:00:23;;;;;;;10.15;7.18;;;5.60;99.90;;;;;;4965668;28;20035;-60
2022/11/13 07:02:49;;;;;;;11.05;7.53;;;5.60;99.90;;;;;;4964246;28;20158;-60
2022/11/13 07:05:15;;;;;;;9.10;7.00;;;5.60;99.90;;;;;;4968060;28;20050;-61
2022/11/13 07:07:40;;;;;;;11.23;7.43;;;5.50;99.90;;;;;;4962212;28;20031;-61
2022/11/13 07:10:06;;;;;;;12.38;7.82;;;5.50;99.90;;;;;;4966529;28;20038;-60
2022/11/13 07:12:32;;;;;;;12.45;7.90;;;5.60;99.90;;;;;;4965164;28;20070;-61
2022/11/13 07:14:58;;;;;;;12.23;8.07;;;5.60;99.90;;;;;;4966963;28;20103;-60
2022/11/13 07:17:23;;;;;;;13.07;7.57;;;5.60;99.90;;;;;;4964680;28;20081;-61
2022/11/13 07:19:49;;;;;;;10.65;8.00;;;5.60;99.90;;;;;;4963925;28;20034;-60
2022/11/13 07:22:14;;;;;;;11.45;8.18;;;5.60;99.90;;;;;;4963592;28;20035;-61
2022/11/13 07:24:41;;;;;;;11.63;8.48;;;5.50;99.90;;;;;;4976276;28;20039;-61
2022/11/13 07:27:07;;;;;;;14.65;9.13;;;5.50;99.90;;;;;;4961786;28;20042;-61
2022/11/13 07:29:34;;;;;;;15.25;9.18;;;5.50;99.90;;;;;;4962429;28;20073;-61
2022/11/13 07:31:59;;;;;;;16.15;10.25;;;5.50;99.90;;;;;;4959734;28;20443;-60
2022/11/13 07:34:25;;;;;;;16.75;9.98;;;5.50;99.90;;;;;;4952189;28;20062;-61
2022/11/13 07:36:50;;;;;;;17.10;10.05;;;5.70;99.90;;;;;;4955398;28;20514;-60
2022/11/13 07:39:16;;;;;;;13.75;9.20;;;5.70;99.90;;;;;;4949741;28;20038;-61
2022/11/13 07:41:42;;;;;;;13.20;9.15;;;5.70;99.90;;;;;;4941482;28;20043;-60
2022/11/13 07:44:07;;;;;;;16.85;9.18;;;5.70;99.90;;;;;;4952574;28;20608;-60
2022/11/13 07:46:33;;;;;;;14.90;9.57;;;5.80;99.90;;;;;;4952900;28;20035;-60
2022/11/13 07:48:58;;;;;;;14.45;9.20;;;5.90;99.90;;;;;;4947460;28;20094;-61
2022/11/13 07:51:24;;;;;;;12.55;8.68;;;5.90;99.90;;;;;;4943988;28;20058;-61
2022/11/13 07:53:49;;;;;;;12.98;8.45;;;5.90;99.90;;;;;;4944007;28;20190;-60
2022/11/13 07:56:15;;;;;;;12.73;8.27;;;6.10;99.90;;;;;;4943282;28;20088;-61
2022/11/13 07:58:40;;;;;;;12.38;8.57;;;6.30;99.90;;;;;;4958326;28;20150;-60
2022/11/13 08:01:06;;;;;;;10.55;8.35;;;6.30;99.90;;;;;;4948296;28;20033;-60
2022/11/13 08:03:32;;;;;;;9.40;7.53;;;6.40;99.90;;;;;;4943042;28;20059;-60
2022/11/13 08:06:06;;;;;;;11.07;7.88;;;6.40;99.90;;;;;;4949497;28;20069;-60
2022/11/13 08:08:32;;;;;;;10.20;7.53;;;6.50;99.90;;;;;;4950053;28;20031;-60
2022/11/13 08:11:01;;;;;;;10.10;7.80;;;6.60;99.90;;;;;;4941038;28;20134;-60
2022/11/13 08:13:27;;;;;;;10.50;7.95;;;6.70;99.90;;;;;;4941653;28;20119;-61
2022/11/13 08:15:52;;;;;;;123.65;94.72;;;6.80;99.90;;;;;;4948002;28;20106;-62
2022/11/13 08:18:18;;;;;;;67.85;47.67;;;7.00;99.90;;;;;;4946643;28;20139;-63
2022/11/13 08:20:43;;;;;;;38.97;26.35;;;7.10;99.90;;;;;;4944964;28;20038;-62
2022/11/13 08:23:09;;;;;;;18.80;12.55;;;7.20;99.90;;;;;;4943476;28;20044;-62
2022/11/13 08:25:35;;;;;;;13.38;9.07;;;7.30;99.90;;;;;;4949615;28;20095;-62
2022/11/13 08:28:01;;;;;;;13.32;8.07;;;7.40;99.90;;;;;;4949459;28;20039;-62
2022/11/13 08:30:27;;;;;;;11.43;7.60;;;7.40;99.90;;;;;;4945786;28;20031;-62
2022/11/13 08:32:53;;;;;;;11.35;7.80;;;7.50;99.90;;;;;;4945137;28;20951;-63
2022/11/13 08:35:20;;;;;;;12.52;8.15;;;7.60;99.90;;;;;;4946843;28;20071;-62
2022/11/13 08:37:45;;;;;;;10.05;7.35;;;7.60;99.90;;;;;;4927720;28;20699;-62
2022/11/13 08:40:11;;;;;;;10.25;7.85;;;7.80;99.90;;;;;;4948312;28;20043;-62
2022/11/13 08:42:37;;;;;;;10.77;7.68;;;7.80;99.90;;;;;;4953224;28;20031;-62
2022/11/13 08:45:03;;;;;;;9.88;7.43;;;7.90;99.90;;;;;;4949014;28;20145;-61
2022/11/13 08:47:29;;;;;;;11.18;7.75;;;7.90;99.90;;;;;;4943371;28;20668;-62
2022/11/13 08:49:55;;;;;;;9.07;7.22;;;8.00;99.90;;;;;;4949891;28;20035;-62
2022/11/13 08:52:21;;;;;;;11.10;8.15;;;8.10;99.90;;;;;;4947257;28;20039;-62
2022/11/13 08:54:46;;;;;;;13.57;8.43;;;8.20;99.90;;;;;;4950342;28;20680;-62
2022/11/13 08:57:12;;;;;;;11.32;7.93;;;8.30;99.90;;;;;;4947218;28;20039;-62
2022/11/13 08:59:37;;;;;;;12.07;7.30;;;8.40;99.90;;;;;;4944068;28;20047;-62
2022/11/13 09:02:04;;;;;;;10.30;7.72;;;8.50;99.90;;;;;;4939875;28;20503;-62
2022/11/13 09:04:29;;;;;;;11.85;7.32;;;8.50;99.90;;;;;;4955970;28;20031;-62
2022/11/13 09:06:55;;;;;;;10.50;7.82;;;8.60;99.90;;;;;;4946398;28;21686;-62
2022/11/13 09:09:22;;;;;;;8.80;6.90;;;8.70;99.90;;;;;;4944530;28;25563;-63
2022/11/13 09:11:48;;;;;;;11.43;7.13;;;8.70;99.90;;;;;;4946011;28;20102;-63
2022/11/13 09:14:14;;;;;;;8.38;6.40;;;8.80;99.90;;;;;;4946871;28;20078;-63
2022/11/13 09:16:39;;;;;;;10.43;6.75;;;8.90;99.90;;;;;;4941719;28;20086;-63
2022/11/13 09:19:05;;;;;;;8.77;6.28;;;8.90;99.90;;;;;;4946994;28;20230;-62
2022/11/13 09:21:31;;;;;;;7.80;6.55;;;9.00;99.90;;;;;;4947387;28;20286;-63
2022/11/13 09:23:56;;;;;;;11.05;6.93;;;9.10;99.90;;;;;;4944172;28;20075;-62
2022/11/13 09:26:22;;;;;;;9.32;6.57;;;9.20;99.90;;;;;;4954950;28;20054;-63
2022/11/13 09:28:47;;;;;;;7.88;6.18;;;9.10;99.90;;;;;;4942719;28;20038;-64
2022/11/13 09:31:13;;;;;;;10.75;6.53;;;9.20;99.90;;;;;;4936878;28;20043;-63
2022/11/13 09:33:38;;;;;;;8.95;6.40;;;9.30;99.90;;;;;;4928510;28;20134;-62
2022/11/13 09:36:13;;;;;;;9.00;6.45;;;9.40;99.90;;;;;;4950061;28;20614;-63
2022/11/13 09:38:39;;;;;;;11.00;6.00;;;9.50;99.90;;;;;;4947307;28;20051;-62
2022/11/13 09:41:16;;;;;;;8.82;6.55;;;9.60;99.90;;;;;;4944365;28;20102;-63
2022/11/13 09:43:45;;;;;;;8.45;6.05;;;9.70;99.90;;;;;;4942190;28;20035;-63
2022/11/13 09:46:16;;;;;;;8.48;6.13;;;9.80;99.90;;;;;;4941908;28;20115;-63
2022/11/13 09:48:51;;;;;;;9.07;6.30;;;9.90;99.90;;;;;;4937475;28;20597;-64
2022/11/13 09:51:28;;;;;;;8.57;5.53;;;10.00;99.90;;;;;;4943861;28;20494;-62
2022/11/13 09:53:54;;;;;;;9.10;5.78;;;10.00;99.90;;;;;;4944053;28;20487;-63
2022/11/13 09:56:31;;;;;;;7.65;5.65;;;10.00;99.90;;;;;;4948927;28;20034;-63
2022/11/13 09:59:18;;;;;;;8.98;6.57;;;10.10;99.90;;;;;;4944720;28;20085;-63
2022/11/13 10:02:17;;;;;;;10.00;6.28;;;10.10;99.90;;;;;;4939812;28;20035;-63
2022/11/13 10:05:09;;;;;;;24.55;10.98;;;10.30;99.90;;;;;;4914513;28;20072;-63
2022/11/13 10:08:02;;;;;;;13.07;9.23;;;10.40;99.90;;;;;;4937271;28;20118;-63
2022/11/13 10:10:43;;;;;;;6.00;4.68;;;10.50;99.90;;;;;;4941718;28;20147;-63
2022/11/13 10:13:20;;;;;;;5.60;4.00;;;10.50;99.90;;;;;;4945503;28;20444;-63
2022/11/13 10:15:49;;;;;;;6.15;3.90;;;10.60;99.90;;;;;;4937200;28;20032;-62
2022/11/13 10:18:28;;;;;;;6.57;4.53;;;10.70;99.90;;;;;;4942181;28;20035;-62
2022/11/13 10:21:00;;;;;;;7.10;4.38;;;10.80;99.90;;;;;;4940575;28;20047;-64
2022/11/13 10:23:37;;;;;;;6.15;4.18;;;10.90;99.90;;;;;;4942905;28;20052;-63
2022/11/13 10:26:19;;;;;;;6.03;3.40;;;10.90;99.90;;;;;;4949238;28;20059;-63
2022/11/13 10:28:44;;;;;;;5.45;3.67;;;11.10;99.90;;;;;;4953604;28;20039;-62
2022/11/13 10:31:11;;;;;;;4.60;3.30;;;11.10;99.90;;;;;;4945877;28;20039;-63
2022/11/13 10:33:37;;;;;;;4.13;3.15;;;11.10;99.90;;;;;;4950525;28;20472;-63
2022/11/13 10:36:32;;;;;;;4.03;3.03;;;11.20;99.90;;;;;;4958930;28;20038;-69
2022/11/13 10:39:04;;;;;;;5.80;3.22;;;11.30;99.90;;;;;;4954220;28;20061;-69
2022/11/13 10:41:30;;;;;;;5.07;3.05;;;11.30;99.90;;;;;;4952027;28;20046;-69
2022/11/13 10:43:57;;;;;;;5.25;3.10;;;11.40;99.90;;;;;;4950774;28;20042;-69
2022/11/13 10:46:25;;;;;;;3.78;2.80;;;11.60;99.90;;;;;;4943467;28;20115;-69
2022/11/13 10:48:51;;;;;;;4.53;3.10;;;11.60;99.90;;;;;;4951433;28;20061;-69
2022/11/13 10:51:16;;;;;;;5.65;2.63;;;11.60;99.90;;;;;;4946033;28;20082;-70
2022/11/13 10:53:43;;;;;;;4.25;2.95;;;11.70;99.90;;;;;;4951406;28;20658;-70
2022/11/13 10:56:26;;;;;;;4.18;2.70;;;11.80;99.90;;;;;;4952272;28;20083;-70
2022/11/13 10:59:12;;;;;;;5.68;2.92;;;11.80;99.90;;;;;;4956082;28;20494;-70
2022/11/13 11:01:39;;;;;;;4.97;2.88;;;11.80;99.90;;;;;;4947011;28;20151;-71
2022/11/13 11:04:06;;;;;;;4.50;2.65;;;11.90;99.90;;;;;;4950285;28;20035;-71
2022/11/13 11:06:37;;;;;;;4.45;2.80;;;11.90;99.90;;;;;;4952868;28;20109;-71
2022/11/13 11:09:16;;;;;;;4.22;2.70;;;11.90;99.90;;;;;;4944448;28;20043;-71
2022/11/13 11:12:14;;;;;;;4.15;2.72;;;12.00;99.90;;;;;;4945832;28;20023;-71
2022/11/13 11:14:58;;;;;;;7.10;3.22;;;12.20;99.90;;;;;;4951447;28;20073;-71
2022/11/13 11:17:55;;;;;;;6.28;4.28;;;12.20;99.90;;;;;;4948405;28;20054;-71
2022/11/13 11:20:39;;;;;;;7.40;4.10;;;12.30;99.90;;;;;;4935797;28;20066;-70
2022/11/13 11:23:33;;;;;;;6.45;3.70;;;12.30;99.90;;;;;;4944795;28;20039;-70
2022/11/13 11:26:25;;;;;;;5.22;4.05;;;12.30;99.90;;;;;;4952370;28;20043;-70
2022/11/13 11:29:13;;;;;;;6.20;4.30;;;12.30;99.90;;;;;;4946870;28;20043;-70
2022/11/13 11:31:50;;;;;;;4.97;3.92;;;12.30;99.90;;;;;;4942593;28;20634;-70
2022/11/13 11:34:28;;;;;;;4.97;3.88;;;12.40;99.90;;;;;;4948893;28;20034;-71
2022/11/13 11:37:13;;;;;;;5.53;3.88;;;12.50;99.90;;;;;;4947867;28;20510;-71
2022/11/13 11:40:06;;;;;;;7.18;4.53;;;12.50;99.90;;;;;;4949281;28;20039;-70
2022/11/13 11:42:46;;;;;;;5.13;3.97;;;12.70;99.90;;;;;;4942406;28;20371;-70
2022/11/13 11:45:35;;;;;;;5.40;3.78;;;12.90;99.90;;;;;;4945336;28;21778;-70
2022/11/13 11:48:04;;;;;;;5.15;3.75;;;12.80;99.90;;;;;;4943177;28;20043;-70
2022/11/13 11:50:45;;;;;;;7.80;4.35;;;12.70;99.90;;;;;;4945823;28;20660;-70
2022/11/13 11:53:39;;;;;;;5.60;3.78;;;12.70;99.90;;;;;;4941230;28;20047;-70
2022/11/13 11:56:31;;;;;;;6.03;3.83;;;12.80;99.90;;;;;;4945068;28;20354;-70
2022/11/13 11:58:57;;;;;;;6.18;3.80;;;12.70;99.90;;;;;;4942605;28;20039;-70
2022/11/13 12:01:48;;;;;;;5.75;3.47;;;12.80;99.90;;;;;;4947037;28;20050;-69
2022/11/13 12:04:27;;;;;;;4.75;3.60;;;12.90;99.90;;;;;;4945869;28;20426;-69
2022/11/13 12:07:25;;;;;;;5.50;3.70;;;12.80;99.90;;;;;;4943329;28;20524;-69
2022/11/13 12:10:02;;;;;;;9.05;3.30;;;12.90;99.90;;;;;;4912280;28;20670;-70
2022/11/13 12:12:44;;;;;;;9.20;3.83;;;13.00;99.90;;;;;;4946746;28;20034;-70
2022/11/13 12:15:36;;;;;;;5.13;3.40;;;13.50;99.90;;;;;;4944310;28;20138;-70
2022/11/13 12:18:35;;;;;;;45.67;32.00;;;13.60;99.90;;;;;;4945252;28;20069;-56
2022/11/13 12:21:25;;;;;;;33.83;24.20;;;13.40;99.90;;;;;;4945288;28;20058;-69
2022/11/13 12:24:17;;;;;;;8.88;6.20;;;13.30;99.90;;;;;;4946135;28;20516;-69
2022/11/13 12:26:56;;;;;;;8.27;5.68;;;13.30;99.90;;;;;;4939962;28;20059;-69
2022/11/13 12:29:40;;;;;;;17.20;12.20;;;13.30;99.90;;;;;;4950646;28;20588;-69
2022/11/13 12:32:28;;;;;;;8.85;4.78;;;13.30;99.90;;;;;;4929174;28;20068;-69
2022/11/13 12:34:59;;;;;;;13.93;11.05;;;13.40;99.90;;;;;;4944353;28;20542;-69
2022/11/13 12:37:44;;;;;;;13.32;9.52;;;13.30;99.90;;;;;;4944347;28;20043;-69
2022/11/13 12:40:57;;;;;;;10.05;8.45;;;13.30;99.90;;;;;;4944396;28;20634;-68
2022/11/13 12:43:59;;;;;;;9.00;4.65;;;13.40;99.90;;;;;;4949593;28;20112;-69
2022/11/13 12:46:34;;;;;;;7.85;6.15;;;13.50;99.90;;;;;;4929359;28;20044;-69
2022/11/13 12:48:59;;;;;;;10.38;6.00;;;13.50;99.90;;;;;;4951555;28;20042;-69
2022/11/13 12:51:37;;;;;;;8.05;4.40;;;13.60;99.90;;;;;;4952597;28;20031;-69
2022/11/13 12:54:03;;;;;;;8.52;5.53;;;14.30;99.90;;;;;;4942005;28;20047;-69
2022/11/13 12:56:31;;;;;;;6.82;3.83;;;14.20;99.90;;;;;;4943777;28;20035;-69
2022/11/13 12:59:17;;;;;;;8.55;5.50;;;14.50;99.90;;;;;;4941974;28;20490;-69
2022/11/13 13:02:01;;;;;;;6.63;4.00;;;14.30;99.90;;;;;;4944296;28;20554;-69